Lastoursville, Gabon
Current Conditions -  °F | °C
As of 7:00 PM on Monday 24 Nov 2014 (Local Time) from FCPD Reporting Station
Broken Clouds Broken Clouds  
Wind Chill: 73°   Ceiling: 13000
Heat Index: 73°   Visibility: 6mi
Dew Point: 70°   Wind: 5mph
Humidity: 88%   Direction: 240°WSW
Pressure: 29.85"   Gusts: NA
Location:  0.81°S, 12.71°E
Report Text: FCPD 241800Z 24004KT 9999 SCT020 BKN130 23/21 Q1011
Loading
Personal Weather Stations






























Interactive Weather Map New forecast layout! Learn more

10-Day Weather Forecast

Advertisements
Track Severe Weather on mobile